Time,TemperatureF,DewpointF,PressureIn,WindDirection,WindDirectionDegrees,WindSpeedMPH,WindSpeedGustMPH,Humidity,HourlyPrecipIn,Conditions,Clouds,dailyrainin,SoftwareType,DateUTC
2013-06-19 00:02:00,55.0,45.0,-100.00,East,100,3.0,6.0,71,-99.99,,,-99.99,,2013-06-19 08:02:00,
2013-06-19 00:11:00,55.0,45.0,-100.00,East,100,3.0,6.0,71,-99.99,,,-99.99,,2013-06-19 08:11:00,
2013-06-19 00:22:00,53.0,46.0,-100.00,East,95,2.0,4.0,76,-99.99,,,-99.99,,2013-06-19 08:22:00,
2013-06-19 00:33:00,53.0,46.0,-100.00,East,95,2.0,4.0,76,-99.99,,,-99.99,,2013-06-19 08:33:00,
2013-06-19 00:43:00,53.0,46.0,-100.00,East,95,2.0,4.0,76,-99.99,,,-99.99,,2013-06-19 08:43:00,
2013-06-19 00:53:00,53.0,47.0,-100.00,West,265,1.0,4.0,81,-99.99,,,-99.99,,2013-06-19 08:53:00,
2013-06-19 01:02:00,53.0,47.0,-100.00,West,265,1.0,4.0,81,-99.99,,,-99.99,,2013-06-19 09:02:00,
2013-06-19 01:11:00,53.0,47.0,-100.00,West,265,1.0,4.0,81,-99.99,,,-99.99,,2013-06-19 09:11:00,
2013-06-19 01:22:00,53.0,47.0,-100.00,West,265,1.0,4.0,81,-99.99,,,-99.99,,2013-06-19 09:22:00,
2013-06-19 01:34:00,54.0,48.0,-100.00,SW,225,2.0,4.0,80,-99.99,,,-99.99,,2013-06-19 09:34:00,
2013-06-19 01:44:00,54.0,48.0,-100.00,SW,225,2.0,4.0,80,-99.99,,,-99.99,,2013-06-19 09:44:00,
2013-06-19 01:53:00,54.0,48.0,-100.00,West,260,1.0,2.0,80,-99.99,,,-99.99,,2013-06-19 09:53:00,
2013-06-19 02:01:00,54.0,48.0,-100.00,West,260,1.0,2.0,80,-99.99,,,-99.99,,2013-06-19 10:01:00,
2013-06-19 02:11:00,54.0,48.0,-100.00,West,260,1.0,2.0,80,-99.99,,,-99.99,,2013-06-19 10:11:00,
2013-06-19 02:22:00,53.0,48.0,-100.00,West,260,1.0,5.0,82,-99.99,,,-99.99,,2013-06-19 10:22:00,
2013-06-19 02:33:00,53.0,48.0,-100.00,West,260,1.0,5.0,82,-99.99,,,-99.99,,2013-06-19 10:33:00,
2013-06-19 02:43:00,53.0,48.0,-100.00,West,260,1.0,5.0,82,-99.99,,,-99.99,,2013-06-19 10:43:00,
2013-06-19 02:53:00,52.0,48.0,-100.00,ENE,75,3.0,8.0,86,-99.99,,,-99.99,,2013-06-19 10:53:00,
2013-06-19 03:01:00,52.0,48.0,-100.00,ENE,75,3.0,8.0,86,-99.99,,,-99.99,,2013-06-19 11:01:00,
2013-06-19 03:11:00,52.0,48.0,-100.00,ENE,75,3.0,8.0,86,-99.99,,,-99.99,,2013-06-19 11:11:00,
2013-06-19 03:22:00,51.0,49.0,-100.00,East,95,4.0,6.0,91,-99.99,,,-99.99,,2013-06-19 11:22:00,
2013-06-19 03:33:00,51.0,49.0,-100.00,East,95,4.0,6.0,91,-99.99,,,-99.99,,2013-06-19 11:33:00,
2013-06-19 03:43:00,51.0,49.0,-100.00,East,95,4.0,6.0,91,-99.99,,,-99.99,,2013-06-19 11:43:00,
2013-06-19 03:54:00,50.0,48.0,-100.00,East,100,4.0,5.0,94,-99.99,,,-99.99,,2013-06-19 11:54:00,
2013-06-19 04:01:00,50.0,48.0,-100.00,East,100,4.0,5.0,94,-99.99,,,-99.99,,2013-06-19 12:01:00,
2013-06-19 04:11:00,50.0,48.0,-100.00,East,100,4.0,5.0,94,-99.99,,,-99.99,,2013-06-19 12:11:00,
2013-06-19 04:22:00,48.0,47.0,-100.00,East,95,4.0,6.0,96,-99.99,,,-99.99,,2013-06-19 12:22:00,
2013-06-19 04:34:00,48.0,47.0,-100.00,East,95,4.0,6.0,96,-99.99,,,-99.99,,2013-06-19 12:34:00,
2013-06-19 04:44:00,48.0,47.0,-100.00,East,95,4.0,6.0,96,-99.99,,,-99.99,,2013-06-19 12:44:00,
2013-06-19 04:53:00,46.0,45.0,-100.00,East,90,6.0,7.0,97,-99.99,,,-99.99,,2013-06-19 12:53:00,
2013-06-19 05:02:00,46.0,45.0,-100.00,East,90,6.0,7.0,97,-99.99,,,-99.99,,2013-06-19 13:02:00,
2013-06-19 05:11:00,46.0,45.0,-100.00,East,90,6.0,7.0,97,-99.99,,,-99.99,,2013-06-19 13:11:00,
2013-06-19 05:22:00,46.0,45.0,-100.00,East,90,6.0,7.0,97,-99.99,,,-99.99,,2013-06-19 13:22:00,
2013-06-19 05:33:00,45.0,45.0,-100.00,East,90,4.0,6.0,98,-99.99,,,-99.99,,2013-06-19 13:33:00,
2013-06-19 05:43:00,45.0,45.0,-100.00,East,90,4.0,6.0,98,-99.99,,,-99.99,,2013-06-19 13:43:00,
2013-06-19 05:53:00,44.0,44.0,-100.00,East,85,4.0,6.0,98,-99.99,,,-99.99,,2013-06-19 13:53:00,
2013-06-19 06:01:00,44.0,44.0,-100.00,East,85,4.0,6.0,98,-99.99,,,-99.99,,2013-06-19 14:01:00,
2013-06-19 06:11:00,44.0,44.0,-100.00,East,85,4.0,6.0,98,-99.99,,,-99.99,,2013-06-19 14:11:00,
2013-06-19 06:22:00,44.0,43.0,-100.00,East,85,4.0,6.0,98,-99.99,,,-99.99,,2013-06-19 14:22:00,
2013-06-19 06:33:00,44.0,43.0,-100.00,East,85,4.0,6.0,98,-99.99,,,-99.99,,2013-06-19 14:33:00,
2013-06-19 06:44:00,44.0,43.0,-100.00,East,85,4.0,6.0,98,-99.99,,,-99.99,,2013-06-19 14:44:00,
2013-06-19 06:53:00,45.0,44.0,-100.00,East,90,4.0,4.0,98,-99.99,,,-99.99,,2013-06-19 14:53:00,
2013-06-19 07:01:00,45.0,44.0,-100.00,East,90,4.0,4.0,98,-99.99,,,-99.99,,2013-06-19 15:01:00,
2013-06-19 07:11:00,45.0,44.0,-100.00,East,90,4.0,4.0,98,-99.99,,,-99.99,,2013-06-19 15:11:00,
2013-06-19 07:22:00,45.0,44.0,-100.00,East,90,4.0,4.0,98,-99.99,,,-99.99,,2013-06-19 15:22:00,
2013-06-19 07:33:00,46.0,45.0,-100.00,East,95,4.0,6.0,98,-99.99,,,-99.99,,2013-06-19 15:33:00,
2013-06-19 07:43:00,46.0,45.0,-100.00,East,95,4.0,6.0,98,-99.99,,,-99.99,,2013-06-19 15:43:00,
2013-06-19 07:53:00,47.0,46.0,-100.00,East,85,4.0,6.0,98,-99.99,,,-99.99,,2013-06-19 15:53:00,
2013-06-19 08:01:00,47.0,46.0,-100.00,East,85,4.0,6.0,98,-99.99,,,-99.99,,2013-06-19 16:01:00,
2013-06-19 08:11:00,47.0,46.0,-100.00,East,85,4.0,6.0,98,-99.99,,,-99.99,,2013-06-19 16:11:00,
2013-06-19 08:22:00,47.0,46.0,-100.00,East,85,4.0,6.0,98,-99.99,,,-99.99,,2013-06-19 16:22:00,
2013-06-19 08:33:00,52.0,51.0,-100.00,North,0,1.0,6.0,95,-99.99,,,-99.99,,2013-06-19 16:33:00,
2013-06-19 08:43:00,52.0,51.0,-100.00,North,0,1.0,6.0,95,-99.99,,,-99.99,,2013-06-19 16:43:00,
2013-06-19 08:52:00,55.0,48.0,-100.00,NW,315,4.0,11.0,78,-99.99,,,-99.99,,2013-06-19 16:52:00,
2013-06-19 09:02:00,55.0,48.0,-100.00,NW,315,4.0,11.0,78,-99.99,,,-99.99,,2013-06-19 17:02:00,
2013-06-19 09:11:00,55.0,48.0,-100.00,NW,315,4.0,11.0,78,-99.99,,,-99.99,,2013-06-19 17:11:00,
2013-06-19 09:22:00,55.0,48.0,-100.00,NW,315,4.0,11.0,78,-99.99,,,-99.99,,2013-06-19 17:22:00,
2013-06-19 09:33:00,54.0,48.0,-100.00,WNW,300,3.0,7.0,80,-99.99,,,-99.99,,2013-06-19 17:33:00,
2013-06-19 09:43:00,54.0,48.0,-100.00,WNW,300,3.0,7.0,80,-99.99,,,-99.99,,2013-06-19 17:43:00,
2013-06-19 09:53:00,54.0,48.0,-100.00,North,0,2.0,9.0,80,-99.99,,,-99.99,,2013-06-19 17:53:00,
2013-06-19 10:01:00,54.0,48.0,-100.00,North,0,2.0,9.0,80,-99.99,,,-99.99,,2013-06-19 18:01:00,
2013-06-19 10:11:00,54.0,48.0,-100.00,North,0,2.0,9.0,80,-99.99,,,-99.99,,2013-06-19 18:11:00,
2013-06-19 10:23:00,54.0,47.0,-100.00,North,5,2.0,9.0,77,-99.99,,,-99.99,,2013-06-19 18:23:00,
2013-06-19 10:33:00,54.0,47.0,-100.00,North,5,2.0,9.0,77,-99.99,,,-99.99,,2013-06-19 18:33:00,
2013-06-19 10:44:00,54.0,47.0,-100.00,North,5,2.0,9.0,77,-99.99,,,-99.99,,2013-06-19 18:44:00,
2013-06-19 10:53:00,54.0,48.0,-100.00,NW,315,2.0,7.0,78,-99.99,,,-99.99,,2013-06-19 18:53:00,
2013-06-19 11:01:00,54.0,48.0,-100.00,NW,315,2.0,7.0,78,-99.99,,,-99.99,,2013-06-19 19:01:00,
2013-06-19 11:11:00,54.0,48.0,-100.00,NW,315,2.0,7.0,78,-99.99,,,-99.99,,2013-06-19 19:11:00,
2013-06-19 11:22:00,55.0,50.0,-100.00,NE,55,1.0,4.0,85,-99.99,,,-99.99,,2013-06-19 19:22:00,
2013-06-19 11:32:00,55.0,50.0,-100.00,NE,55,1.0,4.0,85,-99.99,,,-99.99,,2013-06-19 19:32:00,
2013-06-19 11:43:00,55.0,50.0,-100.00,NE,55,1.0,4.0,85,-99.99,,,-99.99,,2013-06-19 19:43:00,
2013-06-19 11:52:00,55.0,51.0,-100.00,WSW,245,3.0,4.0,86,-99.99,,,-99.99,,2013-06-19 19:52:00,
2013-06-19 12:02:00,55.0,51.0,-100.00,WSW,245,3.0,4.0,86,-99.99,,,-99.99,,2013-06-19 20:02:00,
2013-06-19 12:11:00,55.0,51.0,-100.00,WSW,245,3.0,4.0,86,-99.99,,,-99.99,,2013-06-19 20:11:00,
2013-06-19 12:22:00,53.0,50.0,-100.00,East,85,1.0,2.0,89,-99.99,,,-99.99,,2013-06-19 20:22:00,
2013-06-19 12:33:00,53.0,50.0,-100.00,East,85,1.0,2.0,89,-99.99,,,-99.99,,2013-06-19 20:33:00,
2013-06-19 12:42:00,53.0,50.0,-100.00,East,85,1.0,2.0,89,-99.99,,,-99.99,,2013-06-19 20:42:00,
2013-06-19 12:52:00,56.0,54.0,-100.00,NW,310,1.0,1.0,92,-99.99,,,-99.99,,2013-06-19 20:52:00,
2013-06-19 13:02:00,56.0,54.0,-100.00,NW,310,1.0,1.0,92,-99.99,,,-99.99,,2013-06-19 21:02:00,
2013-06-19 13:11:00,56.0,54.0,-100.00,NW,310,1.0,1.0,92,-99.99,,,-99.99,,2013-06-19 21:11:00,
2013-06-19 13:22:00,56.0,54.0,-100.00,SE,135,2.0,4.0,92,-99.99,,,-99.99,,2013-06-19 21:22:00,
2013-06-19 13:33:00,56.0,54.0,-100.00,SE,135,2.0,4.0,92,-99.99,,,-99.99,,2013-06-19 21:33:00,
2013-06-19 13:44:00,56.0,54.0,-100.00,SE,135,2.0,4.0,92,-99.99,,,-99.99,,2013-06-19 21:44:00,
2013-06-19 13:52:00,59.0,52.0,-100.00,WNW,290,2.0,7.0,77,-99.99,,,-99.99,,2013-06-19 21:52:00,
2013-06-19 14:01:00,59.0,52.0,-100.00,WNW,290,2.0,7.0,77,-99.99,,,-99.99,,2013-06-19 22:01:00,
2013-06-19 14:11:00,59.0,52.0,-100.00,WNW,290,2.0,7.0,77,-99.99,,,-99.99,,2013-06-19 22:11:00,
2013-06-19 14:22:00,56.0,51.0,-100.00,WSW,255,6.0,11.0,84,-99.99,,,-99.99,,2013-06-19 22:22:00,
2013-06-19 14:34:00,56.0,51.0,-100.00,WSW,255,6.0,11.0,84,-99.99,,,-99.99,,2013-06-19 22:34:00,
2013-06-19 14:42:00,56.0,51.0,-100.00,WSW,255,6.0,11.0,84,-99.99,,,-99.99,,2013-06-19 22:42:00,
2013-06-19 14:53:00,56.0,50.0,-100.00,WSW,240,6.0,10.0,81,-99.99,,,-99.99,,2013-06-19 22:53:00,
2013-06-19 15:02:00,56.0,50.0,-100.00,WSW,240,6.0,10.0,81,-99.99,,,-99.99,,2013-06-19 23:02:00,
2013-06-19 15:12:00,56.0,50.0,-100.00,WSW,240,6.0,10.0,81,-99.99,,,-99.99,,2013-06-19 23:12:00,
2013-06-19 15:22:00,56.0,50.0,-100.00,WSW,240,6.0,10.0,81,-99.99,,,-99.99,,2013-06-19 23:22:00,
2013-06-19 15:33:00,58.0,49.0,-100.00,West,270,5.0,11.0,74,-99.99,,,-99.99,,2013-06-19 23:33:00,
2013-06-19 15:43:00,58.0,49.0,-100.00,West,270,5.0,11.0,74,-99.99,,,-99.99,,2013-06-19 23:43:00,
2013-06-19 15:52:00,56.0,50.0,-100.00,West,260,4.0,7.0,81,-99.99,,,-99.99,,2013-06-19 23:52:00,
2013-06-19 16:01:00,56.0,50.0,-100.00,West,260,4.0,7.0,81,-99.99,,,-99.99,,2013-06-20 00:01:00,
2013-06-19 16:11:00,56.0,50.0,-100.00,West,260,4.0,7.0,81,-99.99,,,-99.99,,2013-06-20 00:11:00,
2013-06-19 16:22:00,56.0,50.0,-100.00,West,260,4.0,7.0,81,-99.99,,,-99.99,,2013-06-20 00:22:00,
2013-06-19 16:33:00,54.0,49.0,-100.00,West,260,4.0,9.0,81,-99.99,,,-99.99,,2013-06-20 00:33:00,
2013-06-19 16:44:00,54.0,49.0,-100.00,West,260,4.0,9.0,81,-99.99,,,-99.99,,2013-06-20 00:44:00,
2013-06-19 16:52:00,55.0,49.0,-100.00,West,280,3.0,6.0,81,-99.99,,,-99.99,,2013-06-20 00:52:00,
2013-06-19 17:02:00,55.0,49.0,-100.00,West,280,3.0,6.0,81,-99.99,,,-99.99,,2013-06-20 01:02:00,
2013-06-19 17:11:00,55.0,49.0,-100.00,West,280,3.0,6.0,81,-99.99,,,-99.99,,2013-06-20 01:11:00,
2013-06-19 17:22:00,56.0,50.0,-100.00,WNW,290,4.0,7.0,80,-99.99,,,-99.99,,2013-06-20 01:22:00,
2013-06-19 17:33:00,56.0,50.0,-100.00,WNW,290,4.0,7.0,80,-99.99,,,-99.99,,2013-06-20 01:33:00,
2013-06-19 17:44:00,56.0,50.0,-100.00,WNW,290,4.0,7.0,80,-99.99,,,-99.99,,2013-06-20 01:44:00,
2013-06-19 17:52:00,58.0,50.0,-100.00,WNW,285,4.0,6.0,74,-99.99,,,-99.99,,2013-06-20 01:52:00,
2013-06-19 18:02:00,58.0,50.0,-100.00,WNW,285,4.0,6.0,74,-99.99,,,-99.99,,2013-06-20 02:02:00,
2013-06-19 18:11:00,58.0,50.0,-100.00,WNW,285,4.0,6.0,74,-99.99,,,-99.99,,2013-06-20 02:11:00,
2013-06-19 18:24:00,58.0,49.0,-100.00,WSW,255,2.0,6.0,73,-99.99,,,-99.99,,2013-06-20 02:24:00,
2013-06-19 18:33:00,58.0,49.0,-100.00,WSW,255,2.0,6.0,73,-99.99,,,-99.99,,2013-06-20 02:33:00,
2013-06-19 18:43:00,58.0,49.0,-100.00,WSW,255,2.0,6.0,73,-99.99,,,-99.99,,2013-06-20 02:43:00,
2013-06-19 18:52:00,57.0,48.0,-100.00,West,270,2.0,4.0,72,-99.99,,,-99.99,,2013-06-20 02:52:00,
2013-06-19 19:02:00,57.0,48.0,-100.00,West,270,2.0,4.0,72,-99.99,,,-99.99,,2013-06-20 03:02:00,
2013-06-19 19:11:00,57.0,48.0,-100.00,West,270,2.0,4.0,72,-99.99,,,-99.99,,2013-06-20 03:11:00,
2013-06-19 19:22:00,58.0,48.0,-100.00,West,260,2.0,5.0,71,-99.99,,,-99.99,,2013-06-20 03:22:00,
2013-06-19 19:33:00,58.0,48.0,-100.00,West,260,2.0,5.0,71,-99.99,,,-99.99,,2013-06-20 03:33:00,
2013-06-19 19:43:00,58.0,48.0,-100.00,West,260,2.0,5.0,71,-99.99,,,-99.99,,2013-06-20 03:43:00,
2013-06-19 19:53:00,57.0,47.0,-100.00,WSW,250,2.0,5.0,70,-99.99,,,-99.99,,2013-06-20 03:53:00,
2013-06-19 20:01:00,57.0,47.0,-100.00,WSW,250,2.0,5.0,70,-99.99,,,-99.99,,2013-06-20 04:01:00,
2013-06-19 20:11:00,57.0,47.0,-100.00,WSW,250,2.0,5.0,70,-99.99,,,-99.99,,2013-06-20 04:11:00,
2013-06-19 20:22:00,56.0,47.0,-100.00,West,260,2.0,4.0,73,-99.99,,,-99.99,,2013-06-20 04:22:00,
2013-06-19 20:33:00,56.0,47.0,-100.00,West,260,2.0,4.0,73,-99.99,,,-99.99,,2013-06-20 04:33:00,
2013-06-19 20:43:00,56.0,47.0,-100.00,West,260,2.0,4.0,73,-99.99,,,-99.99,,2013-06-20 04:43:00,
2013-06-19 20:53:00,55.0,46.0,-100.00,WNW,295,1.0,4.0,72,-99.99,,,-99.99,,2013-06-20 04:53:00,
2013-06-19 21:01:00,55.0,46.0,-100.00,WNW,295,1.0,4.0,72,-99.99,,,-99.99,,2013-06-20 05:01:00,
2013-06-19 21:12:00,55.0,46.0,-100.00,WNW,295,1.0,4.0,72,-99.99,,,-99.99,,2013-06-20 05:12:00,
2013-06-19 21:22:00,55.0,47.0,-100.00,SSW,210,1.0,4.0,73,-99.99,,,-99.99,,2013-06-20 05:22:00,
2013-06-19 21:33:00,55.0,47.0,-100.00,SSW,210,1.0,4.0,73,-99.99,,,-99.99,,2013-06-20 05:33:00,
2013-06-19 21:44:00,55.0,47.0,-100.00,SSW,210,1.0,4.0,73,-99.99,,,-99.99,,2013-06-20 05:44:00,
2013-06-19 21:53:00,55.0,47.0,-100.00,WSW,250,2.0,4.0,74,-99.99,,,-99.99,,2013-06-20 05:53:00,
2013-06-19 22:01:00,55.0,47.0,-100.00,WSW,250,2.0,4.0,74,-99.99,,,-99.99,,2013-06-20 06:01:00,
2013-06-19 22:11:00,55.0,47.0,-100.00,WSW,250,2.0,4.0,74,-99.99,,,-99.99,,2013-06-20 06:11:00,
2013-06-19 22:22:00,55.0,47.0,-100.00,WSW,250,2.0,4.0,74,-99.99,,,-99.99,,2013-06-20 06:22:00,
2013-06-19 22:34:00,54.0,47.0,-100.00,ESE,120,0.0,3.0,76,-99.99,,,-99.99,,2013-06-20 06:34:00,
2013-06-19 22:43:00,54.0,47.0,-100.00,ESE,120,0.0,3.0,76,-99.99,,,-99.99,,2013-06-20 06:43:00,
2013-06-19 22:53:00,54.0,47.0,-100.00,SE,125,0.0,1.0,80,-99.99,,,-99.99,,2013-06-20 06:53:00,
2013-06-19 23:01:00,54.0,47.0,-100.00,SE,125,0.0,1.0,80,-99.99,,,-99.99,,2013-06-20 07:01:00,
2013-06-19 23:12:00,54.0,47.0,-100.00,SE,125,0.0,1.0,80,-99.99,,,-99.99,,2013-06-20 07:12:00,
2013-06-19 23:22:00,53.0,48.0,-100.00,ESE,105,0.0,1.0,84,-99.99,,,-99.99,,2013-06-20 07:22:00,
2013-06-19 23:33:00,53.0,48.0,-100.00,ESE,105,0.0,1.0,84,-99.99,,,-99.99,,2013-06-20 07:33:00,
2013-06-19 23:44:00,53.0,48.0,-100.00,ESE,105,0.0,1.0,84,-99.99,,,-99.99,,2013-06-20 07:44:00,
2013-06-19 23:52:00,52.0,47.0,-100.00,ESE,115,1.0,2.0,86,-99.99,,,-99.99,,2013-06-20 07:52:00,